Home > Products > Valid Products > TAF

000
FTUS43 KUNR 162300
TAFGCC
TAF
KGCC 162333Z 1700/1724 VRB05KT P6SM -SHSN SCT025 BKN030
      TEMPO 1700/1704 BKN025
     FM170500 18010KT P6SM SCT025 BKN060
     FM171200 19010KT P6SM SCT070=



000
FTUS43 KUNR 162300
TAFRAP
TAF
KRAP 162333Z 1700/1724 05008KT P6SM SCT030 BKN040
     FM170400 VRB04KT P6SM BKN025
     FM171200 15010KT P6SM SCT030=



000
FTUS43 KUNR 162100 AAA
TAFGCC
TAF AMD
KGCC 162101Z 1621/1718 36011KT P6SM VCSH BKN035
     FM170300 VRB06KT P6SM BKN060
     FM171200 18010KT P6SM SCT070=



000
FTUS43 KUNR 162000 AAA
TAFRAP
TAF AMD
KRAP 162058Z 1621/1718 36015G22KT P6SM SCT040 BKN100
     FM170200 05010KT P6SM OVC015
     FM171200 16010KT P6SM SCT015=



000
FTUS43 KUNR 161700
TAFRAP
TAF
KRAP 161720Z 1618/1718 36020G28KT P6SM SCT020 BKN100
     FM170000 05010KT P6SM OVC015
     FM171200 16010KT P6SM SCT015=



000
FTUS43 KUNR 161700
TAFGCC
TAF
KGCC 161720Z 1618/1718 34017KT P6SM SCT040
     FM170400 VRB06KT P6SM BKN060
     FM171200 18010KT P6SM SCT070=



000
FTUS43 KUNR 161500 AAA
TAFGCC
TAF AMD
KGCC 161538Z 1616/1712 34015G22KT P6SM BKN030
     FM161800 34015KT P6SM BKN040
     FM170400 19012KT P6SM BKN070=



000
FTUS43 KUNR 161500 AAA
TAFRAP
TAF AMD
KRAP 161502Z 1615/1712 36022G30KT P6SM SCT040
      TEMPO 1615/1617 P6SM -SHRASN BKN018 OVC025
     FM161800 02020G28KT P6SM SCT040
     FM170000 05010KT P6SM SCT080=



000
FTUS43 KUNR 161100
TAFGCC
TAF
KGCC 161120Z 1612/1712 32020G30KT P6SM SCT060 BKN100
     FM162000 34015KT P6SM BKN050
     FM170400 19012KT P6SM BKN070=



000
FTUS43 KUNR 161100
TAFRAP
TAF
KRAP 161120Z 1612/1712 34026G36KT P6SM VCSH BKN035 OVC100
      TEMPO 1612/1615 P6SM -SHRA BKN025 OVC050
     FM161800 35025G35KT P6SM SCT040
     FM170000 35010KT P6SM SCT080=



000
FTUS43 KUNR 160500
TAFRAP
TAF
KRAP 160520Z 1606/1706 34023G33KT P6SM -SHRA BKN050
     FM160900 34026G36KT P6SM -SHRASN BKN030
     FM161200 35028G40KT P6SM -SHRASN BKN025
     FM161600 35025G35KT P6SM -SHRASN SCT035=



000
FTUS43 KUNR 160500
TAFGCC
TAF
KGCC 160520Z 1606/1706 32017G25KT 6SM -SHRASN SCT010 BKN015
     FM161600 34015KT P6SM -SHSN SCT020 BKN035=



000
FTUS43 KUNR 160400 AAB
TAFRAP
TAF AMD
KRAP 160402Z 1604/1624 34014G24KT P6SM -SHRA BKN050
     FM160900 33026G36KT P6SM -SHRASN BKN040
     FM161500 35028G40KT P6SM -SHRASN BKN025=



000
FTUS43 KUNR 160300 AAC
TAFGCC
TAF AMD
KGCC 160350Z 1604/1624 33015KT P6SM -SHRA SCT015 BKN025
     FM160900 33020G30KT 3SM -SN BKN015
     FM161200 31020G30KT P6SM -SHSN BKN020=



000
FTUS43 KUNR 160300 AAB
TAFGCC
TAF AMD
KGCC 160305Z 1603/1624 33015KT P6SM -SHRA SCT020 BKN100
     FM160500 33018KT P6SM -SHRA BKN025
     FM160900 33020G30KT 3SM -SN BKN015
     FM161200 31020G30KT P6SM -SHSN BKN020=



000
FTUS43 KUNR 160100 AAA
TAFRAP
TAF AMD
KRAP 160132Z 1602/1624 34014KT P6SM -SHRA BKN050
     FM160900 33026G36KT P6SM -SHRASN BKN040
     FM161500 35028G40KT P6SM -SHRASN BKN025=



000
FTUS43 KUNR 160100 AAA
TAFGCC
TAF AMD
KGCC 160117Z 1601/1624 31015KT P6SM BKN100
     FM160900 33020G30KT 3SM -SN BKN015
     FM161200 31020G30KT P6SM -SHSN BKN020=



000
FTUS43 KUNR 152300
TAFRAP
TAF
KRAP 152320Z 1600/1624 VRB05KT P6SM BKN100
     FM160300 33011KT P6SM -SHRA BKN050
     FM160900 33026G36KT P6SM BKN040
     FM161500 35028G40KT P6SM -SHRASN BKN025=



000
FTUS43 KUNR 152300
TAFGCC
TAF
KGCC 152320Z 1600/1624 31014KT P6SM BKN100
     FM160100 31016G26KT P6SM -SHRA BKN025
     FM160900 33020G30KT 3SM -SN BKN015
     FM161200 31020G30KT P6SM -SHSN BKN020=



000
FTUS43 KUNR 151700
TAFRAP
TAF
KRAP 151720Z 1518/1618 31015KT P6SM SCT150
     FM160200 33025G35KT P6SM -SHRA BKN040
     FM161500 35028G40KT P6SM -SHRASN BKN025=



000
FTUS43 KUNR 151700
TAFGCC
TAF
KGCC 151720Z 1518/1618 26014KT P6SM BKN100
     FM160100 31016G26KT P6SM -RA BKN025
     FM160400 33020G30KT 1SM -SN VV008
     FM161000 31020G30KT 5SM -SHSN BKN015=



000
FTUS43 KUNR 151100
TAFGCC
TAF
KGCC 151123Z 1512/1612 25014KT P6SM BKN150
     FM160100 31012KT P6SM -RA BKN025 OVC040
     FM160500 34020G30KT 1SM -SN VV008=



000
FTUS43 KUNR 151100
TAFRAP
TAF
KRAP 151123Z 1512/1612 VRB05KT P6SM BKN200
     FM151900 31015KT P6SM SCT150
     FM160200 33027G37KT P6SM VCSH BKN040 OVC080=



000
FTUS43 KUNR 150500
TAFRAP
TAF
KRAP 150520Z 1506/1606 VRB05KT P6SM SCT200
     FM151500 20008KT P6SM SCT200
     FM151800 31015KT P6SM SCT150=



000
FTUS43 KUNR 150500
TAFGCC
TAF
KGCC 150520Z 1506/1606 22013KT P6SM SCT150
     FM151800 27014KT P6SM SCT150
     FM160100 31012KT P6SM -RA BKN025 OVC060=



000
FTUS43 KUNR 142300
TAFGCC
TAF
KGCC 142338Z 1500/1524 30009KT P6SM FEW070
     FM150300 21011KT P6SM SCT150
     FM151000 22014KT P6SM SCT150=



000
FTUS43 KUNR 142300
TAFRAP
TAF
KRAP 142338Z 1500/1524 01015KT P6SM FEW070
     FM150200 VRB05KT P6SM SCT200
     FM151500 20008KT P6SM SCT200=



000
FTUS43 KUNR 141700
TAFGCC
TAF
KGCC 141720Z 1418/1518 30012KT P6SM SCT200
     FM150300 19012KT P6SM SCT150=



000
FTUS43 KUNR 141700
TAFRAP
TAF
KRAP 141720Z 1418/1518 34024G34KT P6SM SCT050
     FM150100 VRB05KT P6SM SCT200=



000
FTUS43 KUNR 141500 AAA
TAFRAP
TAF AMD
KRAP 141522Z 1415/1512 34024G34KT P6SM SCT050
      TEMPO 1415/1417 4SM -SHSN BKN030
     FM150100 VRB04KT P6SM SCT200=



000
FTUS43 KUNR 141100
TAFRAP
TAF
KRAP 141120Z 1412/1512 34005KT P6SM SCT150
     FM141500 34018G28KT P6SM SCT050
     FM150100 VRB04KT P6SM SCT200=



000
FTUS43 KUNR 141100
TAFGCC
TAF
KGCC 141120Z 1412/1512 30014KT P6SM FEW060
     FM150300 19010KT P6SM SCT150=



000
FTUS43 KUNR 140500
TAFGCC
TAF
KGCC 140520Z 1406/1506 28011KT P6SM SCT050
     FM141500 31016KT P6SM SCT250
     FM150300 19010KT P6SM SCT100 BKN250=



000
FTUS43 KUNR 140500
TAFRAP
TAF
KRAP 140520Z 1406/1506 34005KT P6SM SCT250
     FM141600 34018G28KT P6SM SCT250
     FM150100 05008KT P6SM BKN250=



000
FTUS43 KUNR 140200 AAA
TAFGCC
TAF AMD
KGCC 140212Z 1402/1424 31011KT P6SM SCT060
     FM141000 30015KT P6SM SCT250=



000
FTUS43 KUNR 140200 AAA
TAFRAP
TAF AMD
KRAP 140211Z 1402/1424 01014KT P6SM SCT040 OVC110
     FM141400 32020G30KT P6SM SKC=



    US Dept of Commerce
    National Oceanic and Atmospheric Administration
    National Weather Service
    1325 East West Highway
    Silver Spring, MD 20910
    Page Author: NWS Internet Services Team
Disclaimer
Information Quality
Credits
Glossary
Privacy Policy
Freedom of Information Act (FOIA)
About Us
Career Opportunities